Time;durP1;ratioP1;P1;durP2;ratioP2;P2;SDS_P1;SDS_P2;PMS_P1;PMS_P2;Temp;Humidity;BMP_temperature;BMP_pressure;BME280_temperature;BME280_humidity;BME280_pressure;Samples;Min_cycle;Max_cycle;Signal;HPM_P1;HPM_P2
2021/07/11 00:00:56;;;;;;;16.20;15.00;;;16.40;79.40;;;;;;4994838;29;20050;-72
2021/07/11 00:03:28;;;;;;;15.98;14.77;;;16.30;77.70;;;;;;4994310;29;20081;-72
2021/07/11 00:05:59;;;;;;;16.20;15.00;;;16.30;78.20;;;;;;4994665;29;20085;-71
2021/07/11 00:08:31;;;;;;;15.65;14.55;;;16.10;79.00;;;;;;4995898;29;20082;-72
2021/07/11 00:11:03;;;;;;;15.70;14.60;;;16.00;77.60;;;;;;4994679;29;20352;-71
2021/07/11 00:13:35;;;;;;;16.05;14.75;;;15.90;76.10;;;;;;4995407;29;20442;-71
2021/07/11 00:16:07;;;;;;;15.98;14.77;;;15.90;77.80;;;;;;4991162;29;20068;-72
2021/07/11 00:18:39;;;;;;;15.57;14.48;;;15.90;76.30;;;;;;4993062;29;20111;-71
2021/07/11 00:21:11;;;;;;;16.35;15.05;;;15.90;76.20;;;;;;4994591;29;20209;-72
2021/07/11 00:23:43;;;;;;;15.95;14.85;;;15.80;77.40;;;;;;5000440;29;20090;-71
2021/07/11 00:26:16;;;;;;;15.48;14.38;;;15.70;78.20;;;;;;4993202;29;20571;-72
2021/07/11 00:28:48;;;;;;;16.05;14.75;;;15.80;78.10;;;;;;4993715;29;20053;-72
2021/07/11 00:31:20;;;;;;;16.00;14.80;;;15.70;76.80;;;;;;4993649;29;20054;-72
2021/07/11 00:33:52;;;;;;;15.73;14.63;;;15.70;77.10;;;;;;4999289;29;20053;-72
2021/07/11 00:36:24;;;;;;;15.57;14.38;;;15.70;78.30;;;;;;4992589;29;20511;-71
2021/07/11 00:38:57;;;;;;;15.90;14.70;;;15.60;78.10;;;;;;4993011;29;20065;-71
2021/07/11 00:41:29;;;;;;;15.88;14.73;;;15.60;78.10;;;;;;5000454;29;20039;-70
2021/07/11 00:44:02;;;;;;;15.88;14.68;;;15.60;79.50;;;;;;4982563;29;20423;-71
2021/07/11 00:46:36;;;;;;;15.68;14.55;;;15.60;79.50;;;;;;4993566;29;20053;-71
2021/07/11 00:49:08;;;;;;;15.40;14.05;;;15.60;79.50;;;;;;4991883;29;20119;-71
2021/07/11 00:51:43;;;;;;;15.60;14.50;;;15.50;80.80;;;;;;4981777;29;20061;-71
2021/07/11 00:54:21;;;;;;;15.80;14.70;;;15.40;81.50;;;;;;5460991;23;20148;-71
2021/07/11 00:56:53;;;;;;;15.60;14.40;;;15.40;81.20;;;;;;5000727;29;20164;-69
2021/07/11 00:59:25;;;;;;;15.70;14.43;;;15.20;81.50;;;;;;5017525;29;20053;-69
2021/07/11 01:02:11;;;;;;;15.50;14.40;;;15.20;81.30;;;;;;5012429;29;20049;-69
2021/07/11 01:05:06;;;;;;;15.55;14.38;;;15.20;81.40;;;;;;5016083;29;20061;-71
2021/07/11 01:08:09;;;;;;;15.38;14.18;;;15.20;80.90;;;;;;5033199;29;20088;-72
2021/07/11 01:10:43;;;;;;;15.82;14.70;;;15.10;80.50;;;;;;5019921;29;20042;-71
2021/07/11 01:13:17;;;;;;;15.77;14.57;;;15.00;81.40;;;;;;5004276;29;20049;-72
2021/07/11 01:16:00;;;;;;;15.57;14.48;;;15.00;81.40;;;;;;5033173;29;20126;-72
2021/07/11 01:18:32;;;;;;;15.80;14.60;;;15.00;81.20;;;;;;5034643;29;20056;-72
2021/07/11 01:21:11;;;;;;;15.80;14.60;;;14.90;81.30;;;;;;5031313;29;20046;-73
2021/07/11 01:23:58;;;;;;;15.93;14.73;;;14.90;81.50;;;;;;5035329;29;20145;-70
2021/07/11 01:26:33;;;;;;;15.77;14.57;;;14.90;82.00;;;;;;5017770;29;20045;-71
2021/07/11 01:29:08;;;;;;;16.08;14.80;;;14.90;80.80;;;;;;5034141;29;20050;-71
2021/07/11 01:31:42;;;;;;;15.73;14.63;;;14.80;81.60;;;;;;5034351;29;20079;-72
2021/07/11 01:34:15;;;;;;;16.10;14.90;;;14.90;81.70;;;;;;5019674;29;20094;-71
2021/07/11 01:36:48;;;;;;;15.35;14.25;;;14.90;81.00;;;;;;5018531;29;20057;-71
2021/07/11 01:39:23;;;;;;;15.60;14.50;;;14.90;82.00;;;;;;5020125;29;20049;-72
2021/07/11 01:41:56;;;;;;;15.32;14.23;;;14.90;82.40;;;;;;5033801;29;20141;-72
2021/07/11 01:44:29;;;;;;;15.65;14.45;;;14.90;81.90;;;;;;5018928;29;20053;-71
2021/07/11 01:47:02;;;;;;;15.48;14.38;;;14.70;82.40;;;;;;5019593;29;20057;-72
2021/07/11 01:49:39;;;;;;;15.50;14.30;;;14.70;82.50;;;;;;5020100;29;20559;-71
2021/07/11 01:52:12;;;;;;;15.70;14.60;;;14.70;82.80;;;;;;5017876;29;20050;-72
2021/07/11 01:54:44;;;;;;;15.70;14.60;;;14.70;82.10;;;;;;5017788;29;20064;-71
2021/07/11 01:57:16;;;;;;;16.00;14.80;;;14.70;81.70;;;;;;5018708;29;20053;-72
2021/07/11 01:59:54;;;;;;;15.55;14.45;;;14.80;82.50;;;;;;5014085;29;20056;-72
2021/07/11 02:02:48;;;;;;;15.68;14.57;;;14.80;83.10;;;;;;5020819;29;20068;-71
2021/07/11 02:05:28;;;;;;;15.70;14.48;;;14.70;82.80;;;;;;5019150;29;20053;-72
2021/07/11 02:08:05;;;;;;;15.90;14.80;;;14.80;81.90;;;;;;5019176;29;20069;-72
2021/07/11 02:10:40;;;;;;;15.73;14.60;;;14.80;82.10;;;;;;5032496;29;20037;-72
2021/07/11 02:13:29;;;;;;;15.85;14.65;;;14.80;82.10;;;;;;5018333;29;20054;-72
2021/07/11 02:16:11;;;;;;;16.08;14.73;;;14.80;82.70;;;;;;4996499;29;20049;-71
2021/07/11 02:18:50;;;;;;;15.63;14.40;;;14.80;83.20;;;;;;5016123;29;20053;-72
2021/07/11 02:21:28;;;;;;;15.70;14.60;;;14.80;83.20;;;;;;5014551;29;20045;-72
2021/07/11 02:24:04;;;;;;;15.52;14.43;;;14.80;83.50;;;;;;5013308;29;20057;-71
2021/07/11 02:26:42;;;;;;;15.95;14.75;;;14.70;83.50;;;;;;5018821;29;20045;-72
2021/07/11 02:29:14;;;;;;;15.25;14.15;;;14.60;83.10;;;;;;5018493;29;20502;-72
2021/07/11 02:31:48;;;;;;;15.60;14.38;;;14.50;83.70;;;;;;5018817;29;20053;-72
2021/07/11 02:34:23;;;;;;;15.23;14.13;;;14.50;84.50;;;;;;5018154;29;20057;-72
2021/07/11 02:37:01;;;;;;;15.35;14.15;;;14.40;84.70;;;;;;5017729;29;20056;-72
2021/07/11 02:39:38;;;;;;;15.25;14.15;;;14.30;85.20;;;;;;5015517;29;20441;-71
2021/07/11 02:42:13;;;;;;;15.32;14.23;;;14.30;84.90;;;;;;5017137;29;20144;-72
2021/07/11 02:44:53;;;;;;;15.90;14.65;;;14.30;84.30;;;;;;5018499;29;20635;-71
2021/07/11 02:47:31;;;;;;;15.32;14.23;;;14.40;83.70;;;;;;5019125;29;20049;-71
2021/07/11 02:50:07;;;;;;;15.30;14.20;;;14.40;83.40;;;;;;5000206;29;20661;-72
2021/07/11 02:52:45;;;;;;;15.60;14.40;;;14.50;84.60;;;;;;5032217;29;20057;-71
2021/07/11 02:55:24;;;;;;;15.63;14.43;;;14.50;84.60;;;;;;5029200;29;20562;-71
2021/07/11 02:58:06;;;;;;;15.75;14.65;;;14.40;84.10;;;;;;5018817;29;20041;-71
2021/07/11 03:00:42;;;;;;;15.20;14.10;;;14.40;84.30;;;;;;5014875;29;20097;-71
2021/07/11 03:03:17;;;;;;;14.80;13.70;;;14.40;84.60;;;;;;5013830;29;20113;-71
2021/07/11 03:06:03;;;;;;;15.13;14.02;;;14.40;84.70;;;;;;5015733;29;20060;-71
2021/07/11 03:08:37;;;;;;;15.07;13.98;;;14.30;84.90;;;;;;5016856;29;20057;-70
2021/07/11 03:11:18;;;;;;;15.10;14.00;;;14.30;84.70;;;;;;5014073;29;20518;-72
2021/07/11 03:13:53;;;;;;;15.18;14.07;;;14.30;84.60;;;;;;5015223;29;20148;-71
2021/07/11 03:16:28;;;;;;;15.52;14.43;;;14.20;85.20;;;;;;5010260;29;20047;-71
2021/07/11 03:19:06;;;;;;;15.35;14.25;;;14.30;85.40;;;;;;5019365;29;20038;-71
2021/07/11 03:21:39;;;;;;;15.15;14.05;;;14.20;85.60;;;;;;5030343;29;20052;-71
2021/07/11 03:24:12;;;;;;;15.70;14.57;;;14.20;85.60;;;;;;5032068;29;20048;-71
2021/07/11 03:26:44;;;;;;;15.13;14.02;;;14.20;85.50;;;;;;5017532;29;20054;-71
2021/07/11 03:29:29;;;;;;;15.70;14.60;;;14.20;85.60;;;;;;5032332;29;20448;-71
2021/07/11 03:32:02;;;;;;;16.20;14.98;;;14.30;85.80;;;;;;5018504;29;20573;-71
2021/07/11 03:34:34;;;;;;;15.93;14.73;;;14.20;86.10;;;;;;5017106;29;20057;-71
2021/07/11 03:37:22;;;;;;;15.57;14.48;;;14.20;86.20;;;;;;5032304;29;20506;-71
2021/07/11 03:39:56;;;;;;;15.52;14.43;;;14.20;85.70;;;;;;5017613;29;20053;-70
2021/07/11 03:42:36;;;;;;;15.52;14.38;;;14.20;85.10;;;;;;5014514;29;20121;-71
2021/07/11 03:45:11;;;;;;;15.73;14.52;;;14.20;85.50;;;;;;5015312;29;20537;-71
2021/07/11 03:47:56;;;;;;;15.75;14.50;;;14.20;85.40;;;;;;5019995;29;20514;-71
2021/07/11 03:50:28;;;;;;;15.80;14.60;;;14.20;86.20;;;;;;5017117;29;20098;-71
2021/07/11 03:53:04;;;;;;;15.93;14.63;;;14.20;86.30;;;;;;5018630;29;20049;-71
2021/07/11 03:55:37;;;;;;;15.57;14.48;;;14.20;85.80;;;;;;5017163;29;20053;-70
2021/07/11 03:58:13;;;;;;;16.10;14.90;;;14.20;85.70;;;;;;5032458;29;20773;-71
2021/07/11 04:00:45;;;;;;;15.60;14.43;;;14.20;85.60;;;;;;5018110;29;20069;-71
2021/07/11 04:03:20;;;;;;;15.70;14.60;;;14.10;85.60;;;;;;5019084;29;20101;-71
2021/07/11 04:05:54;;;;;;;15.57;14.48;;;14.10;85.70;;;;;;5017401;29;20057;-71
2021/07/11 04:08:28;;;;;;;15.75;14.55;;;14.20;85.30;;;;;;5018569;29;20114;-71
2021/07/11 04:11:00;;;;;;;16.13;14.93;;;14.20;85.30;;;;;;5017553;29;20530;-71
2021/07/11 04:13:34;;;;;;;15.82;14.73;;;14.20;85.70;;;;;;5018088;29;20097;-71
2021/07/11 04:16:08;;;;;;;16.88;15.10;;;14.20;85.70;;;;;;5016569;29;20608;-72
2021/07/11 04:18:49;;;;;;;16.10;14.80;;;14.20;85.50;;;;;;5018061;29;20049;-71
2021/07/11 04:21:22;;;;;;;15.95;14.65;;;14.20;86.10;;;;;;5018710;29;20061;-71
2021/07/11 04:23:57;;;;;;;15.80;14.60;;;14.20;85.40;;;;;;5017576;29;20049;-71
2021/07/11 04:26:33;;;;;;;15.90;14.70;;;14.20;85.80;;;;;;5021096;29;20693;-71
2021/07/11 04:29:06;;;;;;;15.93;14.73;;;14.30;86.10;;;;;;5022268;29;20042;-72
2021/07/11 04:31:38;;;;;;;15.98;14.77;;;14.30;86.00;;;;;;5005510;29;20041;-71
2021/07/11 04:34:30;;;;;;;16.00;14.80;;;14.30;85.80;;;;;;5020893;29;20046;-71
2021/07/11 04:37:05;;;;;;;16.05;14.85;;;14.30;85.70;;;;;;5020892;29;20186;-72
2021/07/11 04:39:38;;;;;;;16.80;15.38;;;14.30;85.80;;;;;;5020860;29;20459;-72
2021/07/11 04:42:11;;;;;;;16.05;14.80;;;14.30;85.90;;;;;;5021648;29;20121;-71
2021/07/11 04:44:44;;;;;;;16.02;14.75;;;14.20;85.90;;;;;;5035519;29;20069;-71
2021/07/11 04:47:17;;;;;;;15.77;14.63;;;14.20;86.70;;;;;;5021735;29;20147;-72
2021/07/11 04:49:49;;;;;;;16.48;15.27;;;14.20;86.20;;;;;;5022433;29;20570;-72
2021/07/11 04:52:21;;;;;;;16.20;15.00;;;14.20;86.10;;;;;;5021474;29;20073;-71
2021/07/11 04:54:53;;;;;;;16.15;14.85;;;14.30;85.80;;;;;;5020158;29;20057;-71
2021/07/11 04:57:24;;;;;;;15.73;14.63;;;14.30;85.90;;;;;;5020326;29;20490;-71
2021/07/11 04:59:56;;;;;;;15.98;14.77;;;14.30;86.00;;;;;;5021874;29;20533;-71
2021/07/11 05:02:28;;;;;;;16.08;14.88;;;14.20;86.20;;;;;;5021013;29;20050;-71
2021/07/11 05:05:01;;;;;;;16.27;15.07;;;14.20;85.80;;;;;;5021490;29;20484;-70
2021/07/11 05:07:33;;;;;;;16.38;14.98;;;14.20;85.40;;;;;;5020675;29;20049;-71
2021/07/11 05:10:10;;;;;;;16.23;15.02;;;14.30;85.80;;;;;;5021213;29;20077;-71
2021/07/11 05:12:42;;;;;;;16.85;15.38;;;14.30;85.30;;;;;;5020424;29;20141;-71
2021/07/11 05:15:14;;;;;;;16.27;14.98;;;14.30;85.50;;;;;;5019995;29;20057;-70
2021/07/11 05:17:46;;;;;;;16.17;14.98;;;14.30;86.10;;;;;;5019918;29;20079;-71
2021/07/11 05:20:18;;;;;;;16.17;14.98;;;14.40;85.40;;;;;;5020600;29;20129;-71
2021/07/11 05:22:50;;;;;;;16.65;15.45;;;14.40;85.50;;;;;;5019869;29;20077;-71
2021/07/11 05:25:22;;;;;;;16.27;15.07;;;14.40;85.30;;;;;;5016364;29;20140;-71
2021/07/11 05:27:54;;;;;;;16.02;14.85;;;14.50;85.30;;;;;;5021276;29;20475;-71
2021/07/11 05:30:25;;;;;;;16.33;15.13;;;14.60;85.20;;;;;;5020740;29;20057;-71
2021/07/11 05:33:02;;;;;;;16.63;15.10;;;14.80;84.80;;;;;;5019648;29;20102;-72
2021/07/11 05:35:34;;;;;;;16.20;15.00;;;15.00;84.60;;;;;;5020177;29;20057;-71
2021/07/11 05:38:07;;;;;;;17.27;15.93;;;15.00;85.40;;;;;;5020053;29;20129;-71
2021/07/11 05:40:39;;;;;;;16.30;15.07;;;15.10;84.40;;;;;;5018893;29;20136;-71
2021/07/11 05:43:11;;;;;;;16.02;14.82;;;15.10;83.90;;;;;;5019740;29;20077;-71
2021/07/11 05:45:43;;;;;;;16.48;15.27;;;15.20;83.90;;;;;;5019432;29;20050;-72
2021/07/11 05:48:15;;;;;;;16.00;14.80;;;15.20;83.50;;;;;;5034925;29;20759;-72
2021/07/11 05:50:47;;;;;;;16.75;15.45;;;15.20;83.30;;;;;;5033171;29;20064;-71
2021/07/11 05:53:19;;;;;;;16.92;15.38;;;15.30;83.40;;;;;;5020176;29;20509;-72
2021/07/11 05:55:51;;;;;;;16.40;15.20;;;15.30;83.70;;;;;;5019078;29;20057;-72
2021/07/11 05:58:23;;;;;;;17.00;15.60;;;15.40;84.10;;;;;;5020093;29;20081;-71
2021/07/11 06:00:55;;;;;;;16.30;15.10;;;15.50;82.40;;;;;;5019541;29;20085;-72
2021/07/11 06:03:27;;;;;;;16.38;15.18;;;15.60;82.20;;;;;;5019464;29;20048;-71
2021/07/11 06:05:59;;;;;;;16.60;15.40;;;15.60;82.50;;;;;;5019659;29;20042;-72
2021/07/11 06:08:32;;;;;;;17.42;16.10;;;15.60;82.20;;;;;;5019410;29;20046;-72
2021/07/11 06:11:03;;;;;;;16.67;15.38;;;15.70;82.80;;;;;;5018139;29;20065;-72
2021/07/11 06:13:35;;;;;;;16.65;15.45;;;15.70;82.60;;;;;;5020234;29;20477;-71
2021/07/11 06:16:08;;;;;;;16.25;15.02;;;15.80;82.90;;;;;;5017768;29;20862;-70
2021/07/11 06:18:40;;;;;;;16.27;15.07;;;15.80;81.30;;;;;;5019449;29;20512;-71
2021/07/11 06:21:12;;;;;;;16.50;15.30;;;15.80;81.90;;;;;;5018968;29;20132;-71
2021/07/11 06:23:43;;;;;;;16.30;15.02;;;16.00;82.10;;;;;;5019400;29;20110;-71
2021/07/11 06:26:16;;;;;;;15.90;14.70;;;16.10;81.70;;;;;;5015817;29;20144;-72
2021/07/11 06:28:47;;;;;;;16.27;15.07;;;16.20;79.70;;;;;;5018098;29;20081;-72
2021/07/11 06:31:19;;;;;;;16.33;15.13;;;16.20;80.80;;;;;;5016890;29;20098;-71
2021/07/11 06:33:52;;;;;;;17.15;15.85;;;16.30;81.70;;;;;;5018274;29;20053;-72
2021/07/11 06:36:26;;;;;;;17.42;16.13;;;16.40;81.80;;;;;;5018587;29;20065;-72
2021/07/11 06:38:59;;;;;;;17.17;15.88;;;16.40;81.50;;;;;;5015922;29;20137;-72
2021/07/11 06:41:31;;;;;;;16.75;15.50;;;16.50;80.60;;;;;;5018368;29;20775;-72
2021/07/11 06:44:03;;;;;;;17.27;15.93;;;16.60;81.30;;;;;;5018704;29;20049;-72
2021/07/11 06:46:35;;;;;;;16.98;15.45;;;16.60;79.80;;;;;;5016168;29;20228;-71
2021/07/11 06:49:07;;;;;;;16.70;15.50;;;16.60;79.50;;;;;;5017614;29;20136;-72
2021/07/11 06:51:39;;;;;;;17.10;15.85;;;16.50;79.10;;;;;;5017354;29;20140;-72
2021/07/11 06:54:11;;;;;;;16.83;15.52;;;16.60;80.00;;;;;;5016892;29;20065;-71
2021/07/11 06:56:43;;;;;;;16.67;15.43;;;16.60;80.00;;;;;;5017427;29;20049;-71
2021/07/11 06:59:15;;;;;;;16.92;15.63;;;16.70;79.60;;;;;;5017709;29;20061;-71
2021/07/11 07:01:47;;;;;;;16.80;15.60;;;16.80;80.20;;;;;;5016948;29;20638;-72
2021/07/11 07:04:20;;;;;;;17.42;16.13;;;16.80;78.60;;;;;;5016382;29;20045;-73
2021/07/11 07:06:52;;;;;;;17.42;16.13;;;16.90;79.60;;;;;;5013438;29;20537;-71
2021/07/11 07:09:24;;;;;;;17.38;16.08;;;17.00;78.80;;;;;;5017788;29;20196;-72
2021/07/11 07:11:56;;;;;;;17.00;15.55;;;17.10;79.40;;;;;;5015768;29;20057;-70
2021/07/11 07:14:28;;;;;;;17.92;16.52;;;17.10;78.10;;;;;;5016845;29;20053;-73
2021/07/11 07:17:00;;;;;;;19.10;17.50;;;17.10;78.50;;;;;;5016895;29;20128;-71
2021/07/11 07:19:32;;;;;;;17.85;16.45;;;17.20;77.30;;;;;;5015341;29;20041;-70
2021/07/11 07:22:04;;;;;;;18.08;16.58;;;17.20;78.90;;;;;;5014812;29;20159;-70
2021/07/11 07:24:36;;;;;;;17.92;16.60;;;17.30;78.10;;;;;;5031887;29;20136;-70
2021/07/11 07:27:08;;;;;;;17.50;16.10;;;17.40;77.80;;;;;;5017909;29;20132;-70
2021/07/11 07:29:40;;;;;;;18.88;17.48;;;17.40;78.40;;;;;;5018023;29;20057;-71
2021/07/11 07:32:12;;;;;;;18.10;16.70;;;17.50;77.80;;;;;;5017980;29;20121;-71
2021/07/11 07:34:44;;;;;;;17.67;16.27;;;17.60;76.60;;;;;;5017125;29;20136;-71
2021/07/11 07:37:16;;;;;;;17.50;16.20;;;17.60;76.20;;;;;;5017570;29;20636;-70
2021/07/11 07:39:47;;;;;;;17.50;16.13;;;17.70;76.30;;;;;;5017302;29;20098;-72
2021/07/11 07:42:19;;;;;;;18.00;16.60;;;17.60;77.30;;;;;;5018057;29;20125;-71
2021/07/11 07:44:53;;;;;;;17.98;16.58;;;17.70;77.90;;;;;;5016176;29;20160;-71
2021/07/11 07:47:25;;;;;;;17.65;16.35;;;17.70;77.50;;;;;;5017339;29;20049;-73
2021/07/11 07:49:57;;;;;;;18.52;17.13;;;17.70;76.30;;;;;;5017416;29;20133;-73
2021/07/11 07:52:30;;;;;;;18.27;16.88;;;17.80;76.40;;;;;;5013002;29;20141;-72
2021/07/11 07:55:04;;;;;;;21.40;19.60;;;17.80;76.60;;;;;;5017009;29;20106;-71
2021/07/11 07:57:36;;;;;;;18.60;17.10;;;17.80;77.20;;;;;;5017078;29;20935;-73
2021/07/11 08:00:11;;;;;;;17.63;16.33;;;17.80;75.30;;;;;;5019345;29;20037;-72
2021/07/11 08:02:43;;;;;;;18.42;17.02;;;17.80;76.20;;;;;;5021603;29;20052;-72
2021/07/11 08:05:15;;;;;;;17.63;16.33;;;17.80;76.50;;;;;;5019559;29;20050;-71
2021/07/11 08:07:47;;;;;;;19.08;17.58;;;17.80;76.20;;;;;;5020012;29;20124;-72
2021/07/11 08:10:20;;;;;;;17.88;16.58;;;17.90;76.60;;;;;;5020368;29;20157;-73
2021/07/11 08:12:52;;;;;;;17.90;16.50;;;18.00;75.70;;;;;;5020589;29;20515;-74
2021/07/11 08:15:24;;;;;;;19.33;17.73;;;18.10;75.60;;;;;;5029431;29;20073;-72
2021/07/11 08:17:56;;;;;;;18.45;17.08;;;18.20;76.20;;;;;;5020408;29;20125;-73
2021/07/11 08:20:28;;;;;;;18.17;16.77;;;18.20;75.70;;;;;;5020105;29;20152;-72
2021/07/11 08:23:00;;;;;;;17.85;16.55;;;18.30;76.10;;;;;;5021953;29;20121;-73
2021/07/11 08:25:32;;;;;;;18.10;16.80;;;18.30;73.30;;;;;;5019492;29;20054;-71
2021/07/11 08:28:05;;;;;;;17.98;16.67;;;18.30;75.10;;;;;;5017083;29;20129;-72
2021/07/11 08:30:37;;;;;;;18.63;17.13;;;18.30;71.70;;;;;;5020740;29;20462;-72
2021/07/11 08:33:09;;;;;;;18.13;16.83;;;18.50;72.80;;;;;;5020069;29;20064;-71
2021/07/11 08:35:41;;;;;;;18.63;17.23;;;18.80;69.60;;;;;;5019512;29;20499;-72
2021/07/11 08:38:13;;;;;;;18.55;17.17;;;19.00;72.50;;;;;;5018664;29;20109;-71
2021/07/11 08:40:45;;;;;;;17.75;16.45;;;19.20;70.20;;;;;;5018320;29;20061;-71
2021/07/11 08:43:19;;;;;;;18.02;16.73;;;19.30;69.10;;;;;;5017532;29;20072;-72
2021/07/11 08:45:51;;;;;;;17.67;16.38;;;19.50;67.20;;;;;;5019223;29;20125;-72
2021/07/11 08:48:23;;;;;;;18.58;17.27;;;19.70;67.60;;;;;;5020344;29;20053;-71
2021/07/11 08:51:01;;;;;;;18.33;17.02;;;19.80;69.10;;;;;;5021156;29;20057;-72
2021/07/11 08:53:33;;;;;;;18.35;17.00;;;20.00;70.50;;;;;;5020119;29;20054;-70
2021/07/11 08:56:18;;;;;;;18.02;16.73;;;20.10;67.00;;;;;;5018418;29;20050;-71
2021/07/11 08:58:52;;;;;;;17.50;16.25;;;20.20;66.80;;;;;;5020890;29;20069;-71
2021/07/11 09:01:27;;;;;;;18.23;16.83;;;20.30;65.70;;;;;;5019561;29;20049;-71
2021/07/11 09:04:03;;;;;;;18.42;17.02;;;20.50;64.80;;;;;;5017196;29;20045;-70
2021/07/11 09:06:56;;;;;;;18.42;17.02;;;20.70;66.30;;;;;;5019432;29;20132;-70
2021/07/11 09:09:31;;;;;;;18.33;17.02;;;20.80;65.80;;;;;;5018146;29;20046;-72
2021/07/11 09:12:09;;;;;;;17.73;16.42;;;21.00;63.00;;;;;;5007959;29;20120;-69
2021/07/11 09:15:02;;;;;;;18.10;16.80;;;21.20;65.10;;;;;;5017819;29;20723;-72
2021/07/11 09:17:34;;;;;;;17.73;16.42;;;21.30;65.70;;;;;;5019475;29;20060;-71
2021/07/11 09:20:07;;;;;;;18.20;16.90;;;21.40;64.50;;;;;;5018657;29;20421;-71
2021/07/11 09:22:39;;;;;;;18.20;16.90;;;21.50;63.70;;;;;;5015304;29;20061;-71
2021/07/11 09:25:13;;;;;;;18.10;16.80;;;21.70;64.50;;;;;;5018971;29;20112;-71
2021/07/11 09:27:44;;;;;;;18.77;17.38;;;21.90;65.40;;;;;;5018013;29;20077;-71
2021/07/11 09:30:17;;;;;;;18.50;17.20;;;22.10;67.50;;;;;;5019093;29;20053;-72
2021/07/11 09:32:52;;;;;;;18.60;17.20;;;22.30;65.10;;;;;;5017015;29;20126;-72
2021/07/11 09:35:26;;;;;;;18.48;17.08;;;22.50;63.60;;;;;;5019522;29;20545;-72
2021/07/11 09:37:58;;;;;;;18.27;16.98;;;22.50;60.80;;;;;;5019264;29;20046;-71
2021/07/11 09:40:31;;;;;;;18.73;17.33;;;22.60;62.70;;;;;;5019907;29;20431;-73
2021/07/11 09:43:04;;;;;;;18.92;17.52;;;22.70;62.90;;;;;;5019697;29;20038;-72
2021/07/11 09:45:35;;;;;;;18.35;17.00;;;22.80;62.60;;;;;;5018720;29;20447;-71
2021/07/11 09:48:10;;;;;;;18.88;17.48;;;23.00;62.80;;;;;;5019948;29;20041;-71
2021/07/11 09:50:42;;;;;;;18.63;17.33;;;23.00;61.60;;;;;;5019558;29;20057;-71
2021/07/11 09:53:14;;;;;;;18.52;17.23;;;23.00;61.10;;;;;;5018358;29;20124;-71
2021/07/11 09:55:46;;;;;;;18.63;17.23;;;23.10;62.20;;;;;;5018675;29;20109;-72
2021/07/11 09:58:22;;;;;;;18.90;17.48;;;23.00;63.00;;;;;;5020852;29;20097;-72
2021/07/11 10:00:54;;;;;;;18.80;17.30;;;22.80;63.30;;;;;;5019290;29;20050;-71
2021/07/11 10:03:26;;;;;;;19.00;17.50;;;22.60;62.90;;;;;;5019329;29;20073;-72
2021/07/11 10:05:58;;;;;;;18.83;17.42;;;22.40;63.40;;;;;;5015285;29;20053;-70
2021/07/11 10:08:30;;;;;;;18.35;17.00;;;22.30;63.30;;;;;;5016621;29;20068;-71
2021/07/11 10:11:02;;;;;;;18.60;17.20;;;22.20;62.10;;;;;;5014146;29;20061;-71
2021/07/11 10:13:34;;;;;;;18.85;17.45;;;22.20;63.80;;;;;;5018666;29;20049;-71
2021/07/11 10:16:11;;;;;;;18.75;17.25;;;22.30;62.90;;;;;;5015371;29;20057;-71
2021/07/11 10:18:45;;;;;;;18.63;17.20;;;22.00;61.30;;;;;;5015897;29;20098;-71
2021/07/11 10:21:19;;;;;;;18.70;17.30;;;21.80;62.90;;;;;;5015883;29;20125;-71
2021/07/11 10:23:51;;;;;;;19.25;17.75;;;21.80;63.30;;;;;;5016078;29;20106;-70
2021/07/11 10:26:34;;;;;;;18.33;17.02;;;21.90;63.10;;;;;;5014167;29;20136;-71
2021/07/11 10:29:13;;;;;;;19.00;17.60;;;22.10;61.90;;;;;;5017166;29;20053;-71
2021/07/11 10:31:51;;;;;;;19.15;17.60;;;22.40;61.10;;;;;;5016629;29;21130;-70
2021/07/11 10:34:28;;;;;;;18.92;17.52;;;22.50;60.40;;;;;;5017316;29;20049;-71
2021/07/11 10:37:14;;;;;;;19.00;17.60;;;22.40;59.60;;;;;;5016515;29;20049;-70
2021/07/11 10:39:46;;;;;;;19.13;17.73;;;22.30;59.30;;;;;;5015943;29;20082;-72
2021/07/11 10:42:27;;;;;;;19.45;17.90;;;22.30;59.10;;;;;;5016973;29;20850;-72
2021/07/11 10:45:08;;;;;;;18.75;17.35;;;22.20;60.80;;;;;;5015894;29;20173;-71
2021/07/11 10:47:40;;;;;;;19.20;17.75;;;22.10;60.10;;;;;;5013657;29;20140;-71
2021/07/11 10:50:24;;;;;;;18.95;17.50;;;22.00;61.60;;;;;;5014696;29;20050;-72
2021/07/11 10:52:58;;;;;;;18.55;17.15;;;21.80;62.10;;;;;;5014484;29;20069;-70
2021/07/11 10:55:37;;;;;;;18.85;17.45;;;21.90;62.20;;;;;;5014559;29;20073;-71
2021/07/11 10:58:19;;;;;;;18.75;17.35;;;21.90;62.20;;;;;;5015693;29;20106;-71
2021/07/11 11:00:51;;;;;;;19.50;17.60;;;21.80;61.50;;;;;;5015912;29;20594;-71
2021/07/11 11:03:25;;;;;;;18.67;17.27;;;21.90;61.80;;;;;;5014927;29;20046;-71
2021/07/11 11:05:57;;;;;;;18.73;17.33;;;22.00;62.60;;;;;;5015811;29;20041;-70
2021/07/11 11:08:30;;;;;;;18.73;17.33;;;22.00;62.90;;;;;;5031706;29;20101;-70
2021/07/11 11:11:06;;;;;;;18.60;17.20;;;22.20;63.10;;;;;;5015275;29;20063;-71
2021/07/11 11:13:38;;;;;;;18.55;17.15;;;22.30;62.90;;;;;;5014127;29;20060;-70
2021/07/11 11:16:19;;;;;;;18.55;17.17;;;22.50;62.70;;;;;;5017700;29;20086;-71
2021/07/11 11:18:52;;;;;;;18.67;17.17;;;22.60;61.60;;;;;;5016183;29;20050;-72
2021/07/11 11:21:25;;;;;;;18.60;17.20;;;22.50;61.20;;;;;;5018520;29;20585;-72
2021/07/11 11:23:57;;;;;;;18.58;17.17;;;22.40;59.80;;;;;;5014137;29;20100;-70
2021/07/11 11:26:30;;;;;;;18.70;17.30;;;22.30;60.70;;;;;;5018290;29;20042;-71
2021/07/11 11:29:05;;;;;;;18.38;16.98;;;22.20;60.70;;;;;;5018200;29;20048;-70
2021/07/11 11:31:37;;;;;;;18.27;16.88;;;22.10;60.70;;;;;;5016581;29;20409;-70
2021/07/11 11:34:12;;;;;;;18.23;16.83;;;22.10;60.80;;;;;;5020241;29;20052;-72
2021/07/11 11:36:48;;;;;;;18.67;17.25;;;22.10;61.80;;;;;;5022687;29;20117;-71
2021/07/11 11:39:31;;;;;;;18.90;17.40;;;22.00;61.60;;;;;;5019765;29;20056;-70
2021/07/11 11:42:05;;;;;;;18.55;17.05;;;21.90;60.10;;;;;;5019041;29;20105;-72
2021/07/11 11:44:37;;;;;;;18.30;16.95;;;21.80;59.30;;;;;;5020105;29;20073;-70
2021/07/11 11:47:09;;;;;;;18.35;16.85;;;21.80;60.50;;;;;;5017574;29;20450;-70
2021/07/11 11:49:41;;;;;;;18.83;17.42;;;21.80;59.70;;;;;;5019068;29;20124;-71
2021/07/11 11:52:13;;;;;;;18.63;17.23;;;21.90;60.40;;;;;;5017991;29;20140;-70
2021/07/11 11:54:45;;;;;;;19.25;17.75;;;21.90;61.70;;;;;;5016391;29;20764;-70
2021/07/11 11:57:31;;;;;;;19.13;17.63;;;22.00;61.20;;;;;;5017924;29;20206;-70
2021/07/11 12:00:05;;;;;;;18.45;17.05;;;22.10;60.40;;;;;;5017795;29;20045;-70
2021/07/11 12:02:37;;;;;;;18.55;17.15;;;22.00;59.20;;;;;;5019644;29;20129;-70
2021/07/11 12:05:14;;;;;;;18.75;17.35;;;22.00;60.00;;;;;;5018996;29;20037;-70
2021/07/11 12:07:46;;;;;;;18.65;17.30;;;22.10;60.00;;;;;;5030375;29;20049;-70
2021/07/11 12:10:18;;;;;;;19.10;17.70;;;22.10;62.20;;;;;;5016774;29;20079;-70
2021/07/11 12:12:58;;;;;;;18.83;17.42;;;22.20;61.50;;;;;;5020561;29;20097;-70
2021/07/11 12:15:34;;;;;;;19.30;17.90;;;22.20;60.10;;;;;;5018997;29;20045;-71
2021/07/11 12:18:07;;;;;;;19.10;17.70;;;22.50;60.20;;;;;;5018467;29;20128;-71
2021/07/11 12:20:50;;;;;;;19.33;17.92;;;22.80;59.40;;;;;;5016667;29;20045;-70
2021/07/11 12:23:24;;;;;;;18.63;17.23;;;23.10;57.40;;;;;;5019319;29;20052;-71
2021/07/11 12:26:01;;;;;;;18.05;16.75;;;23.10;56.60;;;;;;5016788;29;20056;-71
2021/07/11 12:28:35;;;;;;;18.63;17.23;;;22.80;59.30;;;;;;5018054;29;20045;-73
2021/07/11 12:31:18;;;;;;;18.92;17.52;;;22.70;58.20;;;;;;5017732;29;20050;-70
2021/07/11 12:34:12;;;;;;;18.50;16.85;;;22.60;58.30;;;;;;5016360;29;20410;-72
2021/07/11 12:36:54;;;;;;;18.10;16.70;;;22.30;58.40;;;;;;5017423;29;20140;-71
2021/07/11 12:39:43;;;;;;;18.63;17.13;;;22.20;58.80;;;;;;5032515;29;20056;-70
2021/07/11 12:42:19;;;;;;;18.17;16.83;;;22.10;60.10;;;;;;5017366;29;20934;-70
2021/07/11 12:44:51;;;;;;;18.45;16.98;;;22.00;59.80;;;;;;5015877;29;21921;-70
2021/07/11 12:47:23;;;;;;;18.15;16.85;;;22.00;59.80;;;;;;5016118;29;20689;-70
2021/07/11 12:49:57;;;;;;;18.90;17.50;;;22.10;59.80;;;;;;5018101;29;20122;-70
2021/07/11 12:52:29;;;;;;;18.98;17.58;;;22.20;59.70;;;;;;5014301;29;20053;-71
2021/07/11 12:55:13;;;;;;;18.95;17.55;;;22.60;58.40;;;;;;5015037;29;20474;-71
2021/07/11 12:57:45;;;;;;;19.35;17.85;;;22.80;57.70;;;;;;5018694;29;20066;-71
2021/07/11 13:00:33;;;;;;;19.15;17.60;;;22.80;58.90;;;;;;5017652;29;20048;-71
2021/07/11 13:03:05;;;;;;;18.20;16.90;;;22.70;57.40;;;;;;5018934;29;20040;-70
2021/07/11 13:05:40;;;;;;;19.05;17.65;;;22.60;58.70;;;;;;5002853;29;20518;-70